Time;durP1;ratioP1;P1;durP2;ratioP2;P2;SDS_P1;SDS_P2;PMS_P1;PMS_P2;Temp;Humidity;BMP_temperature;BMP_pressure;BME280_temperature;BME280_humidity;BME280_pressure;Samples;Min_cycle;Max_cycle;Signal;HPM_P1;HPM_P2
2023/12/17 00:03:11;;;;;;;31.30;15.10;;;;;;;4.21;98.14;100226.82;438250;1245;97985;-40
2023/12/17 00:33:38;;;;;;;30.40;14.80;;;;;;;4.36;97.97;100208.48;438190;1249;97908;-39
2023/12/17 00:43:46;;;;;;;25.10;12.50;;;;;;;4.37;97.98;100215.65;437922;1249;329466;-40
2023/12/17 01:03:59;;;;;;;24.70;10.40;;;;;;;4.47;97.53;100198.62;438114;1249;112340;-40
2023/12/17 01:14:06;;;;;;;24.00;10.90;;;;;;;4.50;97.69;100199.02;438166;1251;107589;-39
2023/12/17 01:24:11;;;;;;;19.10;10.90;;;;;;;4.46;97.45;100182.48;438046;1249;98819;-40
2023/12/17 01:34:19;;;;;;;19.10;10.00;;;;;;;4.49;97.37;100178.64;438050;1244;106750;-38
2023/12/17 01:44:25;;;;;;;23.90;11.20;;;;;;;4.56;97.42;100181.27;438044;1244;99225;-41
2023/12/17 01:54:32;;;;;;;19.20;10.90;;;;;;;4.55;97.75;100174.57;438152;1250;110358;-40
2023/12/17 02:04:37;;;;;;;21.90;11.50;;;;;;;4.53;97.76;100166.90;438298;1244;108721;-39
2023/12/17 02:14:42;;;;;;;16.30;8.50;;;;;;;4.60;97.80;100149.29;437990;1250;99250;-40
2023/12/17 02:24:49;;;;;;;21.20;8.30;;;;;;;4.72;97.50;100139.83;438036;1250;107431;-40
2023/12/17 02:34:57;;;;;;;12.10;7.80;;;;;;;4.81;97.43;100139.45;438748;1243;99224;-40
2023/12/17 02:45:03;;;;;;;21.40;9.80;;;;;;;4.86;97.44;100136.08;438035;1250;111921;-40
2023/12/17 02:55:11;;;;;;;17.20;7.70;;;;;;;4.85;97.54;100136.73;437931;1250;109115;-39
2023/12/17 03:05:18;;;;;;;18.10;7.30;;;;;;;4.93;97.29;100150.62;437999;1250;98679;-38
2023/12/17 03:15:26;;;;;;;10.90;7.00;;;;;;;5.00;97.43;100147.79;438054;1247;107490;-39
2023/12/17 03:25:31;;;;;;;16.60;8.80;;;;;;;5.03;97.48;100145.66;437873;1248;99234;-39
2023/12/17 03:35:38;;;;;;;18.70;9.50;;;;;;;4.95;97.54;100141.00;437313;1250;112900;-40
2023/12/17 03:45:44;;;;;;;15.20;8.70;;;;;;;4.92;97.32;100148.09;437333;1247;108041;-39
2023/12/17 03:55:52;;;;;;;19.60;8.40;;;;;;;4.95;97.21;100157.87;437288;1250;98814;-39
2023/12/17 04:06:01;;;;;;;18.90;9.40;;;;;;;5.00;97.32;100145.20;437134;1247;108247;-39
2023/12/17 04:16:06;;;;;;;19.90;11.60;;;;;;;4.95;97.22;100140.67;437345;1248;97915;-40
2023/12/17 04:26:13;;;;;;;21.90;12.80;;;;;;;4.77;97.11;100145.59;437284;1250;110811;-39
2023/12/17 04:36:19;;;;;;;23.80;12.60;;;;;;;4.68;96.93;100148.45;437220;1250;107820;-40
2023/12/17 04:56:34;;;;;;;21.60;12.40;;;;;;;4.56;96.78;100135.02;437332;1250;110653;-40
2023/12/17 05:06:40;;;;;;;28.20;13.80;;;;;;;4.44;96.63;100145.64;437389;1250;99231;-39
2023/12/17 05:16:48;;;;;;;22.90;11.20;;;;;;;4.35;96.53;100151.08;437307;1250;111068;-40
2023/12/17 05:26:55;;;;;;;15.40;10.30;;;;;;;4.32;96.36;100137.38;437204;1250;107848;-40
2023/12/17 05:37:02;;;;;;;19.30;12.00;;;;;;;4.30;96.37;100141.66;437293;1250;99240;-40
2023/12/17 05:47:09;;;;;;;22.80;11.40;;;;;;;4.27;96.40;100152.69;437278;1250;108200;-40
2023/12/17 05:57:16;;;;;;;18.20;9.60;;;;;;;4.29;96.34;100154.77;437438;1250;99215;-40
2023/12/17 06:07:23;;;;;;;17.30;10.00;;;;;;;4.39;96.48;100170.97;437299;1251;111044;-40
2023/12/17 06:17:30;;;;;;;22.90;13.40;;;;;;;4.36;96.31;100188.20;437381;1250;109320;-39
2023/12/17 06:27:37;;;;;;;19.50;9.50;;;;;;;4.29;96.04;100193.38;437300;1247;99199;-40
2023/12/17 06:37:44;;;;;;;22.00;10.90;;;;;;;4.27;96.00;100178.88;437376;1248;107715;-40
2023/12/17 06:47:51;;;;;;;22.70;13.70;;;;;;;4.21;96.09;100191.55;437419;1250;98030;-39
2023/12/17 06:57:58;;;;;;;15.70;10.80;;;;;;;4.06;96.07;100189.41;437460;1248;112992;-40
2023/12/17 07:08:04;;;;;;;20.30;11.70;;;;;;;4.03;95.99;100193.35;437386;1250;108826;-40
2023/12/17 07:18:11;;;;;;;25.50;14.50;;;;;;;3.95;96.04;100201.97;437505;1248;98810;-39
2023/12/17 07:28:18;;;;;;;22.40;13.00;;;;;;;3.79;96.06;100198.27;437399;1250;107957;-39
2023/12/17 07:38:25;;;;;;;18.40;10.70;;;;;;;3.81;96.05;100199.71;437349;1260;99256;-40
2023/12/17 07:58:39;;;;;;;33.90;15.80;;;;;;;3.82;96.35;100211.10;437776;1251;106703;-39
2023/12/17 08:08:47;;;;;;;27.20;13.20;;;;;;;3.81;96.44;100215.91;437603;1248;99397;-39
2023/12/17 08:18:53;;;;;;;24.90;13.20;;;;;;;3.89;96.39;100225.23;437265;1250;107771;-40
2023/12/17 08:29:00;;;;;;;20.50;11.90;;;;;;;4.00;96.51;100230.95;437369;1250;99304;-39
2023/12/17 08:49:12;;;;;;;35.80;16.40;;;;;;;4.23;96.89;100227.13;437401;1251;108834;-39
2023/12/17 09:09:26;;;;;;;20.00;13.10;;;;;;;4.34;96.88;100242.11;437882;1248;107860;-39
2023/12/17 09:19:33;;;;;;;24.50;14.40;;;;;;;4.44;97.00;100250.23;437819;1250;99217;-39
2023/12/17 09:39:47;;;;;;;22.30;12.70;;;;;;;4.53;97.12;100258.41;437332;1250;107249;-40
2023/12/17 09:49:54;;;;;;;19.20;10.80;;;;;;;4.60;97.15;100261.91;437484;1250;98821;-40
2023/12/17 10:10:09;;;;;;;35.80;17.50;;;;;;;4.58;97.61;100247.39;437388;1250;98023;-40
2023/12/17 10:20:18;;;;;;;35.70;19.50;;;;;;;4.64;97.50;100224.89;437458;1250;110788;-38
2023/12/17 10:40:41;;;;;;;69.50;28.70;;;;;;;4.86;97.84;100212.64;437336;1250;98804;-39
2023/12/17 10:50:48;;;;;;;47.80;24.30;;;;;;;4.86;98.04;100215.29;437349;1250;107719;-38
2023/12/17 11:11:03;;;;;;;35.30;18.60;;;;;;;4.88;98.14;100206.89;437490;1250;110190;-39
2023/12/17 11:21:10;;;;;;;17.90;11.00;;;;;;;4.96;98.42;100197.02;437426;1251;106870;-41
2023/12/17 11:31:17;;;;;;;21.30;11.20;;;;;;;5.05;98.70;100200.08;437248;1250;97950;-39
2023/12/17 11:41:22;;;;;;;23.20;14.00;;;;;;;5.16;98.88;100199.99;437378;1250;108767;-40
2023/12/17 11:51:28;;;;;;;30.80;16.60;;;;;;;5.26;99.09;100197.95;438049;1248;98803;-39
2023/12/17 12:01:34;;;;;;;42.70;23.20;;;;;;;5.25;99.34;100197.56;437348;1260;112133;-39
2023/12/17 12:11:41;;;;;;;24.40;12.80;;;;;;;5.32;99.15;100189.64;437472;1248;107613;-40
2023/12/17 12:21:50;;;;;;;13.80;10.00;;;;;;;5.33;99.41;100188.25;437302;1260;98056;-39
2023/12/17 12:31:57;;;;;;;8.40;5.90;;;;;;;5.39;99.42;100197.63;437443;1251;106608;-39
2023/12/17 12:42:03;;;;;;;10.20;6.80;;;;;;;5.43;99.79;100199.99;437421;1248;99266;-41
2023/12/17 12:52:09;;;;;;;13.20;8.00;;;;;;;5.44;99.82;100198.46;437156;1251;282734;-39
2023/12/17 13:22:27;;;;;;;21.00;12.20;;;;;;;5.57;99.78;100151.86;437354;1251;109859;-40
2023/12/17 13:32:33;;;;;;;21.10;12.30;;;;;;;5.58;99.90;100148.61;437291;1248;98846;-39
2023/12/17 13:42:41;;;;;;;14.40;9.30;;;;;;;5.58;99.71;100150.74;437354;1250;111919;-40
2023/12/17 14:02:51;;;;;;;30.80;16.00;;;;;;;5.63;99.65;100136.02;437447;1248;98837;-40
2023/12/17 14:13:00;;;;;;;31.50;17.00;;;;;;;5.50;99.57;100130.70;437431;1250;108449;-40
2023/12/17 14:33:12;;;;;;;34.20;17.80;;;;;;;5.41;99.28;100146.72;437655;1250;111834;-40
2023/12/17 14:43:19;;;;;;;16.70;10.40;;;;;;;5.46;99.44;100144.40;437249;1246;108506;-39
2023/12/17 15:03:33;;;;;;;31.10;17.10;;;;;;;5.36;99.70;100141.14;437503;1250;109162;-39
2023/12/17 15:23:45;;;;;;;41.50;20.70;;;;;;;5.34;99.28;100129.09;437228;1250;112027;-39
2023/12/17 15:33:50;;;;;;;50.90;27.70;;;;;;;5.39;99.42;100128.72;437266;1247;108237;-40
2023/12/17 15:43:56;;;;;;;50.80;29.30;;;;;;;5.32;99.63;100126.50;437348;1251;100258;-40
2023/12/17 16:04:10;;;;;;;54.30;30.00;;;;;;;4.88;98.80;100089.55;437176;1247;99838;-39
2023/12/17 16:14:16;;;;;;;66.60;34.40;;;;;;;4.70;98.75;100077.55;437219;1248;110933;-40
2023/12/17 16:24:24;;;;;;;58.70;31.80;;;;;;;4.60;98.98;100078.30;437370;1247;106550;-40
2023/12/17 16:34:31;;;;;;;50.00;30.50;;;;;;;4.56;99.11;100085.55;437176;1248;99211;-40
2023/12/17 16:54:45;;;;;;;75.30;45.20;;;;;;;4.25;99.04;100088.86;437220;1250;99231;-40
2023/12/17 17:04:52;;;;;;;70.10;42.10;;;;;;;4.11;98.91;100095.91;437283;1258;112865;-40
2023/12/17 17:14:59;;;;;;;69.70;39.70;;;;;;;3.99;98.69;100093.89;437261;1247;107509;-39
2023/12/17 17:25:08;;;;;;;64.80;37.60;;;;;;;3.87;98.73;100083.20;437081;1248;99563;-41
2023/12/17 17:35:15;;;;;;;75.60;43.90;;;;;;;3.74;98.89;100074.08;437235;1250;107937;-40
2023/12/17 17:45:21;;;;;;;56.60;31.60;;;;;;;3.63;99.29;100054.90;437363;1250;99211;-40
2023/12/17 18:05:34;;;;;;;44.50;23.40;;;;;;;3.75;99.42;100043.27;437293;1250;109606;-39
2023/12/17 18:15:41;;;;;;;34.70;21.90;;;;;;;3.83;99.54;100031.48;437372;1247;99241;-39
2023/12/17 18:25:49;;;;;;;38.30;23.50;;;;;;;3.88;99.63;100024.98;437285;1246;106881;-39
2023/12/17 18:35:58;;;;;;;53.20;29.60;;;;;;;3.92;99.59;100015.16;437166;1250;99211;-39
2023/12/17 18:56:15;;;;;;;57.90;32.60;;;;;;;3.85;99.84;100030.06;437211;1247;108625;-40
2023/12/17 19:06:21;;;;;;;40.10;23.50;;;;;;;3.86;99.81;100005.15;437284;1250;98744;-39
2023/12/17 19:16:27;;;;;;;34.00;20.70;;;;;;;3.95;99.75;100003.70;437492;1250;108610;-39
2023/12/17 19:36:37;;;;;;;35.80;21.20;;;;;;;4.12;99.90;100020.02;437218;1250;112150;-40
2023/12/17 19:46:44;;;;;;;46.10;23.20;;;;;;;4.14;99.90;100007.13;437101;1248;108261;-41
2023/12/17 19:56:49;;;;;;;47.30;24.10;;;;;;;4.08;99.98;99993.95;437327;1248;99218;-40
2023/12/17 20:06:56;;;;;;;34.90;18.70;;;;;;;4.05;99.85;99977.11;437284;1247;108544;-39
2023/12/17 20:17:04;;;;;;;31.30;17.10;;;;;;;4.12;99.72;99978.85;437173;1247;99217;-41
2023/12/17 20:27:10;;;;;;;31.70;18.70;;;;;;;4.20;99.80;99976.13;437191;1247;111152;-40
2023/12/17 20:37:17;;;;;;;41.90;23.80;;;;;;;4.19;99.93;99973.77;437131;1250;107593;-40
2023/12/17 20:47:24;;;;;;;44.60;22.70;;;;;;;4.08;99.78;99963.18;437165;1247;97979;-40
2023/12/17 20:57:31;;;;;;;37.20;20.90;;;;;;;3.99;99.51;99953.92;437220;1250;108392;-39
2023/12/17 21:07:39;;;;;;;31.30;17.80;;;;;;;3.98;99.49;99942.90;437445;1246;99317;-40
2023/12/17 21:17:44;;;;;;;34.10;17.20;;;;;;;3.97;99.56;99934.13;437544;1248;109496;-40
2023/12/17 21:27:51;;;;;;;38.30;19.10;;;;;;;3.97;99.75;99929.42;437397;1250;108369;-40
2023/12/17 21:37:59;;;;;;;24.10;14.50;;;;;;;3.95;99.81;99935.23;437564;1250;98363;-39
2023/12/17 21:48:03;;;;;;;21.80;12.60;;;;;;;4.00;99.58;99927.88;437581;1250;112268;-39
2023/12/17 22:08:16;;;;;;;30.50;17.20;;;;;;;4.05;99.39;99912.07;437526;1250;97968;-40
2023/12/17 22:18:23;;;;;;;24.00;13.80;;;;;;;3.98;99.58;99896.02;437225;1250;106398;-43
2023/12/17 22:28:31;;;;;;;25.50;14.30;;;;;;;4.02;99.26;99883.22;437320;1250;98801;-39
2023/12/17 22:38:39;;;;;;;16.20;11.50;;;;;;;3.99;99.22;99888.38;437276;1250;112345;-40
2023/12/17 22:48:46;;;;;;;32.80;15.80;;;;;;;3.92;99.16;99883.86;437239;1250;107330;-39
2023/12/17 22:58:53;;;;;;;22.50;12.30;;;;;;;3.82;99.06;99883.92;437298;1248;99213;-40
2023/12/17 23:09:02;;;;;;;21.00;11.90;;;;;;;3.77;98.82;99877.86;437119;1250;109364;-40
2023/12/17 23:19:09;;;;;;;21.90;11.00;;;;;;;3.75;98.77;99878.43;437358;1248;99272;-40
2023/12/17 23:39:21;;;;;;;25.30;12.50;;;;;;;3.61;98.88;99870.85;437394;1250;109493;-39
2023/12/17 23:49:30;;;;;;;18.30;10.50;;;;;;;3.61;98.72;99856.83;437357;1250;97978;-42
2023/12/17 23:59:37;;;;;;;22.00;11.40;;;;;;;3.60;98.54;99845.84;437396;1250;107478;-40
